sensor_id;sensor_type;location;lat;lon;timestamp;temperature;humidity
19330;DHT22;9799;48.214;16.388;2023-04-28T00:01:46;10.60;89.50
19330;DHT22;9799;48.214;16.388;2023-04-28T00:05:08;10.60;89.80
19330;DHT22;9799;48.214;16.388;2023-04-28T00:08:29;10.70;90.40
19330;DHT22;9799;48.214;16.388;2023-04-28T00:11:52;10.60;90.80
19330;DHT22;9799;48.214;16.388;2023-04-28T00:15:13;10.60;91.40
19330;DHT22;9799;48.214;16.388;2023-04-28T00:18:34;10.60;92.00
19330;DHT22;9799;48.214;16.388;2023-04-28T00:21:55;10.70;92.50
19330;DHT22;9799;48.214;16.388;2023-04-28T00:25:17;10.70;93.10
19330;DHT22;9799;48.214;16.388;2023-04-28T00:28:39;10.60;94.20
19330;DHT22;9799;48.214;16.388;2023-04-28T00:32:00;10.50;95.60
19330;DHT22;9799;48.214;16.388;2023-04-28T00:35:22;10.50;95.90
19330;DHT22;9799;48.214;16.388;2023-04-28T00:38:43;10.50;96.30
19330;DHT22;9799;48.214;16.388;2023-04-28T00:42:04;10.50;97.10
19330;DHT22;9799;48.214;16.388;2023-04-28T00:45:27;10.40;98.60
19330;DHT22;9799;48.214;16.388;2023-04-28T00:48:48;10.40;99.90
19330;DHT22;9799;48.214;16.388;2023-04-28T00:52:10;10.30;99.90
19330;DHT22;9799;48.214;16.388;2023-04-28T00:55:33;10.20;99.90
19330;DHT22;9799;48.214;16.388;2023-04-28T00:58:55;10.20;99.90
19330;DHT22;9799;48.214;16.388;2023-04-28T01:02:17;10.10;99.90
19330;DHT22;9799;48.214;16.388;2023-04-28T01:05:39;10.20;99.90
19330;DHT22;9799;48.214;16.388;2023-04-28T01:09:00;10.20;99.90
19330;DHT22;9799;48.214;16.388;2023-04-28T01:12:21;10.20;99.90
19330;DHT22;9799;48.214;16.388;2023-04-28T01:15:42;10.20;99.90
19330;DHT22;9799;48.214;16.388;2023-04-28T01:19:06;10.10;99.90
19330;DHT22;9799;48.214;16.388;2023-04-28T01:22:27;10.10;99.90
19330;DHT22;9799;48.214;16.388;2023-04-28T01:25:50;10.10;99.90
19330;DHT22;9799;48.214;16.388;2023-04-28T01:29:11;10.00;99.90
19330;DHT22;9799;48.214;16.388;2023-04-28T01:32:32;9.90;99.90
19330;DHT22;9799;48.214;16.388;2023-04-28T01:35:56;9.90;99.90
19330;DHT22;9799;48.214;16.388;2023-04-28T01:39:18;9.90;99.90
19330;DHT22;9799;48.214;16.388;2023-04-28T01:42:40;9.90;99.90
19330;DHT22;9799;48.214;16.388;2023-04-28T01:46:01;9.80;99.90
19330;DHT22;9799;48.214;16.388;2023-04-28T01:49:22;9.80;99.90
19330;DHT22;9799;48.214;16.388;2023-04-28T01:52:44;9.80;99.90
19330;DHT22;9799;48.214;16.388;2023-04-28T01:56:05;9.80;99.90
19330;DHT22;9799;48.214;16.388;2023-04-28T01:59:31;9.80;99.90
19330;DHT22;9799;48.214;16.388;2023-04-28T02:02:52;9.70;99.90
19330;DHT22;9799;48.214;16.388;2023-04-28T02:06:13;9.70;99.90
19330;DHT22;9799;48.214;16.388;2023-04-28T02:09:34;9.80;99.90
19330;DHT22;9799;48.214;16.388;2023-04-28T02:12:55;9.80;99.90
19330;DHT22;9799;48.214;16.388;2023-04-28T02:16:18;9.70;99.90
19330;DHT22;9799;48.214;16.388;2023-04-28T02:19:39;9.70;99.90
19330;DHT22;9799;48.214;16.388;2023-04-28T02:23:00;9.70;99.90
19330;DHT22;9799;48.214;16.388;2023-04-28T02:26:21;9.70;99.90
19330;DHT22;9799;48.214;16.388;2023-04-28T02:29:43;9.60;99.90
19330;DHT22;9799;48.214;16.388;2023-04-28T02:33:05;9.60;99.90
19330;DHT22;9799;48.214;16.388;2023-04-28T02:36:27;9.60;99.90
19330;DHT22;9799;48.214;16.388;2023-04-28T02:39:48;9.60;99.90
19330;DHT22;9799;48.214;16.388;2023-04-28T02:43:09;9.50;99.90
19330;DHT22;9799;48.214;16.388;2023-04-28T02:46:30;9.60;99.90
19330;DHT22;9799;48.214;16.388;2023-04-28T02:49:53;9.50;99.90
19330;DHT22;9799;48.214;16.388;2023-04-28T02:53:14;9.50;99.90
19330;DHT22;9799;48.214;16.388;2023-04-28T02:56:36;9.50;99.90
19330;DHT22;9799;48.214;16.388;2023-04-28T02:59:59;9.40;99.90
19330;DHT22;9799;48.214;16.388;2023-04-28T03:03:20;9.50;99.90
19330;DHT22;9799;48.214;16.388;2023-04-28T03:06:43;9.50;99.90
19330;DHT22;9799;48.214;16.388;2023-04-28T03:10:05;9.40;99.90
19330;DHT22;9799;48.214;16.388;2023-04-28T03:13:26;9.40;99.90
19330;DHT22;9799;48.214;16.388;2023-04-28T03:16:49;9.30;99.90
19330;DHT22;9799;48.214;16.388;2023-04-28T03:20:10;9.40;99.90
19330;DHT22;9799;48.214;16.388;2023-04-28T03:23:33;9.20;99.90
19330;DHT22;9799;48.214;16.388;2023-04-28T03:26:54;9.10;99.90
19330;DHT22;9799;48.214;16.388;2023-04-28T03:30:15;9.20;99.90
19330;DHT22;9799;48.214;16.388;2023-04-28T03:33:36;9.50;99.90
19330;DHT22;9799;48.214;16.388;2023-04-28T03:36:57;9.70;99.90
19330;DHT22;9799;48.214;16.388;2023-04-28T03:40:20;9.70;99.90
19330;DHT22;9799;48.214;16.388;2023-04-28T03:43:41;9.70;99.90
19330;DHT22;9799;48.214;16.388;2023-04-28T03:47:03;9.70;99.90
19330;DHT22;9799;48.214;16.388;2023-04-28T03:50:24;9.60;99.90
19330;DHT22;9799;48.214;16.388;2023-04-28T03:53:45;9.40;99.90
19330;DHT22;9799;48.214;16.388;2023-04-28T03:57:08;9.40;99.90
19330;DHT22;9799;48.214;16.388;2023-04-28T04:00:29;9.40;99.90
19330;DHT22;9799;48.214;16.388;2023-04-28T04:03:50;9.40;99.90
19330;DHT22;9799;48.214;16.388;2023-04-28T04:07:12;9.30;99.90
19330;DHT22;9799;48.214;16.388;2023-04-28T04:10:33;9.30;99.90
19330;DHT22;9799;48.214;16.388;2023-04-28T04:13:56;9.30;99.90
19330;DHT22;9799;48.214;16.388;2023-04-28T04:17:17;9.30;99.90
19330;DHT22;9799;48.214;16.388;2023-04-28T04:20:38;9.20;99.90
19330;DHT22;9799;48.214;16.388;2023-04-28T04:24:00;9.20;99.90
19330;DHT22;9799;48.214;16.388;2023-04-28T04:27:21;9.10;99.90
19330;DHT22;9799;48.214;16.388;2023-04-28T04:30:43;9.20;99.90
19330;DHT22;9799;48.214;16.388;2023-04-28T04:34:04;9.20;99.90
19330;DHT22;9799;48.214;16.388;2023-04-28T04:37:26;9.30;99.90
19330;DHT22;9799;48.214;16.388;2023-04-28T04:40:47;9.20;99.90
19330;DHT22;9799;48.214;16.388;2023-04-28T04:44:09;9.40;99.90
19330;DHT22;9799;48.214;16.388;2023-04-28T04:47:31;9.40;99.90
19330;DHT22;9799;48.214;16.388;2023-04-28T04:50:53;9.50;99.90
19330;DHT22;9799;48.214;16.388;2023-04-28T04:54:14;9.40;99.90
19330;DHT22;9799;48.214;16.388;2023-04-28T04:57:35;9.50;99.90
19330;DHT22;9799;48.214;16.388;2023-04-28T05:00:57;9.50;99.90
19330;DHT22;9799;48.214;16.388;2023-04-28T05:04:19;9.60;99.90
19330;DHT22;9799;48.214;16.388;2023-04-28T05:07:41;9.50;99.90
19330;DHT22;9799;48.214;16.388;2023-04-28T05:11:03;9.50;99.90
19330;DHT22;9799;48.214;16.388;2023-04-28T05:14:24;9.40;99.90
19330;DHT22;9799;48.214;16.388;2023-04-28T05:17:45;9.50;99.90
19330;DHT22;9799;48.214;16.388;2023-04-28T05:21:08;9.80;99.90
19330;DHT22;9799;48.214;16.388;2023-04-28T05:24:30;10.00;99.90
19330;DHT22;9799;48.214;16.388;2023-04-28T05:27:51;10.10;99.90
19330;DHT22;9799;48.214;16.388;2023-04-28T05:31:13;10.00;99.90
19330;DHT22;9799;48.214;16.388;2023-04-28T05:34:35;10.10;99.90
19330;DHT22;9799;48.214;16.388;2023-04-28T05:37:58;10.00;99.90
19330;DHT22;9799;48.214;16.388;2023-04-28T05:41:19;10.10;99.90
19330;DHT22;9799;48.214;16.388;2023-04-28T05:44:40;10.10;99.90
19330;DHT22;9799;48.214;16.388;2023-04-28T05:48:01;10.20;99.90
19330;DHT22;9799;48.214;16.388;2023-04-28T05:51:24;10.40;99.90
19330;DHT22;9799;48.214;16.388;2023-04-28T05:54:47;10.60;99.90
19330;DHT22;9799;48.214;16.388;2023-04-28T05:58:08;10.40;99.90
19330;DHT22;9799;48.214;16.388;2023-04-28T06:01:29;10.40;99.90
19330;DHT22;9799;48.214;16.388;2023-04-28T06:04:50;10.50;99.90
19330;DHT22;9799;48.214;16.388;2023-04-28T06:08:12;10.60;99.90
19330;DHT22;9799;48.214;16.388;2023-04-28T06:11:34;10.90;99.90
19330;DHT22;9799;48.214;16.388;2023-04-28T06:14:55;11.10;99.90
19330;DHT22;9799;48.214;16.388;2023-04-28T06:18:16;11.20;99.90
19330;DHT22;9799;48.214;16.388;2023-04-28T06:21:37;11.40;99.90
19330;DHT22;9799;48.214;16.388;2023-04-28T06:25:00;11.50;99.90
19330;DHT22;9799;48.214;16.388;2023-04-28T06:28:22;11.60;99.90
19330;DHT22;9799;48.214;16.388;2023-04-28T06:31:43;11.80;99.90
19330;DHT22;9799;48.214;16.388;2023-04-28T06:35:05;11.70;99.90
19330;DHT22;9799;48.214;16.388;2023-04-28T06:38:27;11.60;99.90
19330;DHT22;9799;48.214;16.388;2023-04-28T06:41:48;11.70;99.90
19330;DHT22;9799;48.214;16.388;2023-04-28T06:45:11;11.80;99.90
19330;DHT22;9799;48.214;16.388;2023-04-28T06:48:32;11.80;99.90
19330;DHT22;9799;48.214;16.388;2023-04-28T06:51:53;12.00;99.90
19330;DHT22;9799;48.214;16.388;2023-04-28T06:55:15;12.10;99.90
19330;DHT22;9799;48.214;16.388;2023-04-28T06:58:36;12.10;99.90
19330;DHT22;9799;48.214;16.388;2023-04-28T07:01:59;12.10;99.90
19330;DHT22;9799;48.214;16.388;2023-04-28T07:05:20;12.30;99.90
19330;DHT22;9799;48.214;16.388;2023-04-28T07:08:42;12.50;99.90
19330;DHT22;9799;48.214;16.388;2023-04-28T07:12:04;12.50;99.90
19330;DHT22;9799;48.214;16.388;2023-04-28T07:15:26;12.50;99.90
19330;DHT22;9799;48.214;16.388;2023-04-28T07:18:48;12.60;99.90
19330;DHT22;9799;48.214;16.388;2023-04-28T07:22:10;12.80;99.90
19330;DHT22;9799;48.214;16.388;2023-04-28T07:25:31;12.80;99.90
19330;DHT22;9799;48.214;16.388;2023-04-28T07:28:53;12.70;99.90
19330;DHT22;9799;48.214;16.388;2023-04-28T07:32:15;12.80;99.90
19330;DHT22;9799;48.214;16.388;2023-04-28T07:35:37;12.90;99.90
19330;DHT22;9799;48.214;16.388;2023-04-28T07:38:59;13.00;99.90
19330;DHT22;9799;48.214;16.388;2023-04-28T07:42:20;13.20;99.90
19330;DHT22;9799;48.214;16.388;2023-04-28T07:45:42;13.30;99.90
19330;DHT22;9799;48.214;16.388;2023-04-28T07:49:07;13.60;99.90
19330;DHT22;9799;48.214;16.388;2023-04-28T07:52:30;13.70;99.90
19330;DHT22;9799;48.214;16.388;2023-04-28T07:55:51;13.80;99.90
19330;DHT22;9799;48.214;16.388;2023-04-28T07:59:13;13.90;99.90
19330;DHT22;9799;48.214;16.388;2023-04-28T08:02:34;14.00;99.90
19330;DHT22;9799;48.214;16.388;2023-04-28T08:05:55;14.20;99.90
19330;DHT22;9799;48.214;16.388;2023-04-28T08:09:19;14.40;99.90
19330;DHT22;9799;48.214;16.388;2023-04-28T08:12:40;14.40;99.90
19330;DHT22;9799;48.214;16.388;2023-04-28T08:16:04;14.40;99.90
19330;DHT22;9799;48.214;16.388;2023-04-28T08:19:25;14.50;99.90
19330;DHT22;9799;48.214;16.388;2023-04-28T08:22:46;14.70;99.90
19330;DHT22;9799;48.214;16.388;2023-04-28T08:26:09;14.70;99.90
19330;DHT22;9799;48.214;16.388;2023-04-28T08:29:30;14.90;99.90
19330;DHT22;9799;48.214;16.388;2023-04-28T08:32:52;15.00;99.80
19330;DHT22;9799;48.214;16.388;2023-04-28T08:36:13;15.10;98.70
19330;DHT22;9799;48.214;16.388;2023-04-28T08:39:34;15.10;98.60
19330;DHT22;9799;48.214;16.388;2023-04-28T08:42:58;15.10;97.50
19330;DHT22;9799;48.214;16.388;2023-04-28T08:46:21;15.40;99.00
19330;DHT22;9799;48.214;16.388;2023-04-28T08:49:43;15.40;97.70
19330;DHT22;9799;48.214;16.388;2023-04-28T08:53:06;15.50;97.20
19330;DHT22;9799;48.214;16.388;2023-04-28T08:56:31;15.50;97.40
19330;DHT22;9799;48.214;16.388;2023-04-28T08:59:54;15.80;96.30
19330;DHT22;9799;48.214;16.388;2023-04-28T09:03:15;15.90;95.80
19330;DHT22;9799;48.214;16.388;2023-04-28T09:06:37;15.70;95.90
19330;DHT22;9799;48.214;16.388;2023-04-28T09:10:15;15.60;96.20
19330;DHT22;9799;48.214;16.388;2023-04-28T09:13:37;15.50;96.60
19330;DHT22;9799;48.214;16.388;2023-04-28T09:17:01;15.50;96.60
19330;DHT22;9799;48.214;16.388;2023-04-28T09:20:23;15.50;96.80
19330;DHT22;9799;48.214;16.388;2023-04-28T09:23:46;15.90;95.90
19330;DHT22;9799;48.214;16.388;2023-04-28T09:27:09;15.80;96.20
19330;DHT22;9799;48.214;16.388;2023-04-28T09:30:39;15.80;95.80
19330;DHT22;9799;48.214;16.388;2023-04-28T09:34:02;15.90;97.20
19330;DHT22;9799;48.214;16.388;2023-04-28T09:37:24;15.90;96.80
19330;DHT22;9799;48.214;16.388;2023-04-28T09:40:55;16.10;96.10
19330;DHT22;9799;48.214;16.388;2023-04-28T09:44:18;16.40;95.50
19330;DHT22;9799;48.214;16.388;2023-04-28T09:47:41;16.50;95.20
19330;DHT22;9799;48.214;16.388;2023-04-28T09:51:05;16.50;95.60
19330;DHT22;9799;48.214;16.388;2023-04-28T09:54:28;16.90;95.30
19330;DHT22;9799;48.214;16.388;2023-04-28T09:57:53;17.10;94.60
19330;DHT22;9799;48.214;16.388;2023-04-28T10:01:15;16.80;95.00
19330;DHT22;9799;48.214;16.388;2023-04-28T10:04:36;17.10;94.80
19330;DHT22;9799;48.214;16.388;2023-04-28T10:08:01;17.40;93.80
19330;DHT22;9799;48.214;16.388;2023-04-28T10:11:23;17.40;93.00
19330;DHT22;9799;48.214;16.388;2023-04-28T10:14:46;17.40;93.20
19330;DHT22;9799;48.214;16.388;2023-04-28T10:18:10;17.20;92.60
19330;DHT22;9799;48.214;16.388;2023-04-28T10:21:34;17.40;92.60
19330;DHT22;9799;48.214;16.388;2023-04-28T10:25:23;17.50;93.50
19330;DHT22;9799;48.214;16.388;2023-04-28T10:28:46;17.60;94.60
19330;DHT22;9799;48.214;16.388;2023-04-28T10:32:20;17.20;93.90
19330;DHT22;9799;48.214;16.388;2023-04-28T10:35:43;17.20;92.90
19330;DHT22;9799;48.214;16.388;2023-04-28T10:39:09;17.80;91.90
19330;DHT22;9799;48.214;16.388;2023-04-28T10:42:51;17.60;91.70
19330;DHT22;9799;48.214;16.388;2023-04-28T10:46:12;17.70;91.00
19330;DHT22;9799;48.214;16.388;2023-04-28T10:50:07;17.60;93.70
19330;DHT22;9799;48.214;16.388;2023-04-28T10:57:24;17.80;90.70
19330;DHT22;9799;48.214;16.388;2023-04-28T11:00:47;18.00;91.10
19330;DHT22;9799;48.214;16.388;2023-04-28T11:04:09;18.40;90.50
19330;DHT22;9799;48.214;16.388;2023-04-28T11:07:32;18.60;90.20
19330;DHT22;9799;48.214;16.388;2023-04-28T11:11:26;18.70;90.00
19330;DHT22;9799;48.214;16.388;2023-04-28T11:14:47;18.50;90.40
19330;DHT22;9799;48.214;16.388;2023-04-28T11:18:14;18.70;90.00
19330;DHT22;9799;48.214;16.388;2023-04-28T11:21:36;18.60;88.60
19330;DHT22;9799;48.214;16.388;2023-04-28T11:25:01;18.70;89.60
19330;DHT22;9799;48.214;16.388;2023-04-28T11:28:22;18.70;87.70
19330;DHT22;9799;48.214;16.388;2023-04-28T11:31:48;18.70;88.00
19330;DHT22;9799;48.214;16.388;2023-04-28T11:35:12;18.90;87.70
19330;DHT22;9799;48.214;16.388;2023-04-28T11:38:42;19.00;86.90
19330;DHT22;9799;48.214;16.388;2023-04-28T11:42:09;19.10;87.10
19330;DHT22;9799;48.214;16.388;2023-04-28T11:45:30;19.20;87.10
19330;DHT22;9799;48.214;16.388;2023-04-28T11:49:02;19.00;86.60
19330;DHT22;9799;48.214;16.388;2023-04-28T11:52:25;18.80;87.50
19330;DHT22;9799;48.214;16.388;2023-04-28T11:55:46;18.90;88.00
19330;DHT22;9799;48.214;16.388;2023-04-28T11:59:08;18.90;87.70
19330;DHT22;9799;48.214;16.388;2023-04-28T12:02:30;18.70;87.30
19330;DHT22;9799;48.214;16.388;2023-04-28T12:05:51;18.60;90.40
19330;DHT22;9799;48.214;16.388;2023-04-28T12:09:17;18.10;90.30
19330;DHT22;9799;48.214;16.388;2023-04-28T12:12:40;18.00;89.10
19330;DHT22;9799;48.214;16.388;2023-04-28T12:16:02;18.10;89.10
19330;DHT22;9799;48.214;16.388;2023-04-28T12:19:24;18.10;93.30
19330;DHT22;9799;48.214;16.388;2023-04-28T12:22:47;18.20;89.40
19330;DHT22;9799;48.214;16.388;2023-04-28T12:26:11;18.10;90.00
19330;DHT22;9799;48.214;16.388;2023-04-28T12:29:39;18.20;90.20
19330;DHT22;9799;48.214;16.388;2023-04-28T12:33:01;18.20;88.40
19330;DHT22;9799;48.214;16.388;2023-04-28T12:36:23;18.20;88.50
19330;DHT22;9799;48.214;16.388;2023-04-28T12:39:44;18.30;89.00
19330;DHT22;9799;48.214;16.388;2023-04-28T12:43:07;18.30;89.00
19330;DHT22;9799;48.214;16.388;2023-04-28T12:46:28;18.20;88.50
19330;DHT22;9799;48.214;16.388;2023-04-28T12:49:50;18.00;89.20
19330;DHT22;9799;48.214;16.388;2023-04-28T12:53:12;17.90;89.30
19330;DHT22;9799;48.214;16.388;2023-04-28T12:56:33;17.80;90.60
19330;DHT22;9799;48.214;16.388;2023-04-28T12:59:56;17.50;92.20
19330;DHT22;9799;48.214;16.388;2023-04-28T13:03:17;17.60;89.90
19330;DHT22;9799;48.214;16.388;2023-04-28T13:06:39;17.50;89.90
19330;DHT22;9799;48.214;16.388;2023-04-28T13:10:03;17.20;92.20
19330;DHT22;9799;48.214;16.388;2023-04-28T13:13:24;16.90;91.90
19330;DHT22;9799;48.214;16.388;2023-04-28T13:16:47;17.20;91.00
19330;DHT22;9799;48.214;16.388;2023-04-28T13:20:09;17.30;90.80
19330;DHT22;9799;48.214;16.388;2023-04-28T13:23:31;17.40;91.00
19330;DHT22;9799;48.214;16.388;2023-04-28T13:26:52;17.40;91.00
19330;DHT22;9799;48.214;16.388;2023-04-28T13:30:13;17.40;91.10
19330;DHT22;9799;48.214;16.388;2023-04-28T13:33:36;17.40;91.40
19330;DHT22;9799;48.214;16.388;2023-04-28T13:36:58;17.30;91.90
19330;DHT22;9799;48.214;16.388;2023-04-28T13:40:19;17.20;92.00
19330;DHT22;9799;48.214;16.388;2023-04-28T13:43:40;17.20;92.00
19330;DHT22;9799;48.214;16.388;2023-04-28T13:47:01;17.30;92.10
19330;DHT22;9799;48.214;16.388;2023-04-28T13:50:29;17.30;92.10
19330;DHT22;9799;48.214;16.388;2023-04-28T13:54:01;17.20;91.80
19330;DHT22;9799;48.214;16.388;2023-04-28T13:57:28;17.20;92.70
19330;DHT22;9799;48.214;16.388;2023-04-28T14:00:50;17.30;92.00
19330;DHT22;9799;48.214;16.388;2023-04-28T14:04:11;17.30;91.70
19330;DHT22;9799;48.214;16.388;2023-04-28T14:07:34;17.20;91.80
19330;DHT22;9799;48.214;16.388;2023-04-28T14:10:55;17.20;92.00
19330;DHT22;9799;48.214;16.388;2023-04-28T14:14:16;17.30;92.40
19330;DHT22;9799;48.214;16.388;2023-04-28T14:17:38;17.20;92.70
19330;DHT22;9799;48.214;16.388;2023-04-28T14:20:59;17.00;93.30
19330;DHT22;9799;48.214;16.388;2023-04-28T14:24:22;16.90;93.00
19330;DHT22;9799;48.214;16.388;2023-04-28T14:27:43;16.90;93.10
19330;DHT22;9799;48.214;16.388;2023-04-28T14:31:05;16.60;94.90
19330;DHT22;9799;48.214;16.388;2023-04-28T14:34:27;16.60;93.90
19330;DHT22;9799;48.214;16.388;2023-04-28T14:37:49;16.80;93.80
19330;DHT22;9799;48.214;16.388;2023-04-28T14:41:13;16.70;95.30
19330;DHT22;9799;48.214;16.388;2023-04-28T14:44:34;16.70;97.90
19330;DHT22;9799;48.214;16.388;2023-04-28T14:47:56;16.60;97.00
19330;DHT22;9799;48.214;16.388;2023-04-28T14:51:17;16.50;97.50
19330;DHT22;9799;48.214;16.388;2023-04-28T14:54:39;16.40;99.90
19330;DHT22;9799;48.214;16.388;2023-04-28T14:58:02;16.40;99.90
19330;DHT22;9799;48.214;16.388;2023-04-28T15:01:23;16.10;99.90
19330;DHT22;9799;48.214;16.388;2023-04-28T15:04:44;16.10;99.90
19330;DHT22;9799;48.214;16.388;2023-04-28T15:08:06;16.20;99.90
19330;DHT22;9799;48.214;16.388;2023-04-28T15:11:27;16.10;99.90
19330;DHT22;9799;48.214;16.388;2023-04-28T15:14:50;16.10;99.90
19330;DHT22;9799;48.214;16.388;2023-04-28T15:18:12;16.10;99.90
19330;DHT22;9799;48.214;16.388;2023-04-28T15:21:33;15.90;99.90
19330;DHT22;9799;48.214;16.388;2023-04-28T15:24:55;15.90;99.90
19330;DHT22;9799;48.214;16.388;2023-04-28T15:28:16;15.80;99.90
19330;DHT22;9799;48.214;16.388;2023-04-28T15:31:38;15.80;99.90
19330;DHT22;9799;48.214;16.388;2023-04-28T15:35:00;15.80;99.90
19330;DHT22;9799;48.214;16.388;2023-04-28T15:38:22;15.90;99.90
19330;DHT22;9799;48.214;16.388;2023-04-28T15:41:43;15.90;99.90
19330;DHT22;9799;48.214;16.388;2023-04-28T15:45:05;15.90;99.90
19330;DHT22;9799;48.214;16.388;2023-04-28T15:48:30;15.90;99.90
19330;DHT22;9799;48.214;16.388;2023-04-28T15:51:51;15.80;99.90
19330;DHT22;9799;48.214;16.388;2023-04-28T15:55:13;15.60;99.90
19330;DHT22;9799;48.214;16.388;2023-04-28T15:58:35;15.50;99.90
19330;DHT22;9799;48.214;16.388;2023-04-28T16:01:56;15.50;99.90
19330;DHT22;9799;48.214;16.388;2023-04-28T16:05:19;15.60;99.90
19330;DHT22;9799;48.214;16.388;2023-04-28T16:08:40;15.70;99.90
19330;DHT22;9799;48.214;16.388;2023-04-28T16:12:01;15.70;99.90
19330;DHT22;9799;48.214;16.388;2023-04-28T16:15:23;15.60;99.90
19330;DHT22;9799;48.214;16.388;2023-04-28T16:18:44;15.50;99.90
19330;DHT22;9799;48.214;16.388;2023-04-28T16:22:07;15.40;99.90
19330;DHT22;9799;48.214;16.388;2023-04-28T16:25:28;15.20;99.90
19330;DHT22;9799;48.214;16.388;2023-04-28T16:28:50;15.20;99.90
19330;DHT22;9799;48.214;16.388;2023-04-28T16:32:11;15.20;99.90
19330;DHT22;9799;48.214;16.388;2023-04-28T16:35:32;15.20;99.90
19330;DHT22;9799;48.214;16.388;2023-04-28T16:38:55;15.10;99.90
19330;DHT22;9799;48.214;16.388;2023-04-28T16:42:16;15.00;99.90
19330;DHT22;9799;48.214;16.388;2023-04-28T16:45:39;15.10;99.90
19330;DHT22;9799;48.214;16.388;2023-04-28T16:49:00;15.20;99.90
19330;DHT22;9799;48.214;16.388;2023-04-28T16:52:22;15.20;99.90
19330;DHT22;9799;48.214;16.388;2023-04-28T16:55:44;15.10;99.90
19330;DHT22;9799;48.214;16.388;2023-04-28T16:59:05;15.10;99.90
19330;DHT22;9799;48.214;16.388;2023-04-28T17:02:26;15.00;99.90
19330;DHT22;9799;48.214;16.388;2023-04-28T17:05:48;14.90;99.90
19330;DHT22;9799;48.214;16.388;2023-04-28T17:09:09;14.90;99.90
19330;DHT22;9799;48.214;16.388;2023-04-28T17:12:32;15.00;99.90
19330;DHT22;9799;48.214;16.388;2023-04-28T17:15:54;15.00;99.90
19330;DHT22;9799;48.214;16.388;2023-04-28T17:19:16;14.90;99.90
19330;DHT22;9799;48.214;16.388;2023-04-28T17:22:37;14.90;99.90
19330;DHT22;9799;48.214;16.388;2023-04-28T17:25:59;14.80;99.90
19330;DHT22;9799;48.214;16.388;2023-04-28T17:29:23;14.80;99.90
19330;DHT22;9799;48.214;16.388;2023-04-28T17:32:44;14.80;99.90
19330;DHT22;9799;48.214;16.388;2023-04-28T17:36:06;14.80;99.90
19330;DHT22;9799;48.214;16.388;2023-04-28T17:39:27;14.80;99.90
19330;DHT22;9799;48.214;16.388;2023-04-28T17:42:48;14.80;99.90
19330;DHT22;9799;48.214;16.388;2023-04-28T17:46:11;14.70;99.90
19330;DHT22;9799;48.214;16.388;2023-04-28T17:49:33;14.70;99.90
19330;DHT22;9799;48.214;16.388;2023-04-28T17:52:55;14.50;99.90
19330;DHT22;9799;48.214;16.388;2023-04-28T17:56:16;14.50;99.90
19330;DHT22;9799;48.214;16.388;2023-04-28T17:59:38;14.50;99.90
19330;DHT22;9799;48.214;16.388;2023-04-28T18:03:02;14.50;99.90
19330;DHT22;9799;48.214;16.388;2023-04-28T18:06:23;14.40;99.90
19330;DHT22;9799;48.214;16.388;2023-04-28T18:09:45;14.40;99.90
19330;DHT22;9799;48.214;16.388;2023-04-28T18:13:07;14.30;99.90
19330;DHT22;9799;48.214;16.388;2023-04-28T18:16:29;14.30;99.90
19330;DHT22;9799;48.214;16.388;2023-04-28T18:19:52;14.30;99.90
19330;DHT22;9799;48.214;16.388;2023-04-28T18:23:15;14.30;99.90
19330;DHT22;9799;48.214;16.388;2023-04-28T18:26:36;14.30;99.90
19330;DHT22;9799;48.214;16.388;2023-04-28T18:29:58;14.20;99.90
19330;DHT22;9799;48.214;16.388;2023-04-28T18:33:23;14.20;99.90
19330;DHT22;9799;48.214;16.388;2023-04-28T18:36:48;14.20;99.90
19330;DHT22;9799;48.214;16.388;2023-04-28T18:40:10;14.30;99.90
19330;DHT22;9799;48.214;16.388;2023-04-28T18:43:31;14.30;99.90
19330;DHT22;9799;48.214;16.388;2023-04-28T18:46:52;14.40;99.90
19330;DHT22;9799;48.214;16.388;2023-04-28T18:50:13;14.40;99.90
19330;DHT22;9799;48.214;16.388;2023-04-28T18:53:37;14.40;99.90
19330;DHT22;9799;48.214;16.388;2023-04-28T18:56:58;14.30;99.90
19330;DHT22;9799;48.214;16.388;2023-04-28T19:00:20;14.30;99.90
19330;DHT22;9799;48.214;16.388;2023-04-28T19:03:41;14.20;99.90
19330;DHT22;9799;48.214;16.388;2023-04-28T19:07:02;14.20;99.90
19330;DHT22;9799;48.214;16.388;2023-04-28T19:10:25;14.20;99.90
19330;DHT22;9799;48.214;16.388;2023-04-28T19:13:47;14.30;99.90
19330;DHT22;9799;48.214;16.388;2023-04-28T19:17:08;14.30;99.90
19330;DHT22;9799;48.214;16.388;2023-04-28T19:20:30;14.30;99.90
19330;DHT22;9799;48.214;16.388;2023-04-28T19:23:52;14.30;99.90
19330;DHT22;9799;48.214;16.388;2023-04-28T19:27:16;14.20;99.90
19330;DHT22;9799;48.214;16.388;2023-04-28T19:30:38;14.20;99.90
19330;DHT22;9799;48.214;16.388;2023-04-28T19:34:00;14.20;99.90
19330;DHT22;9799;48.214;16.388;2023-04-28T19:37:21;14.20;99.90
19330;DHT22;9799;48.214;16.388;2023-04-28T19:40:44;14.10;99.90
19330;DHT22;9799;48.214;16.388;2023-04-28T19:44:07;14.20;99.90
19330;DHT22;9799;48.214;16.388;2023-04-28T19:47:30;14.20;99.90
19330;DHT22;9799;48.214;16.388;2023-04-28T19:50:52;14.30;99.90
19330;DHT22;9799;48.214;16.388;2023-04-28T19:54:15;14.20;99.90
19330;DHT22;9799;48.214;16.388;2023-04-28T19:57:37;14.20;99.90
19330;DHT22;9799;48.214;16.388;2023-04-28T20:01:00;14.20;99.90
19330;DHT22;9799;48.214;16.388;2023-04-28T20:04:23;14.20;99.90
19330;DHT22;9799;48.214;16.388;2023-04-28T20:07:48;14.30;99.90
19330;DHT22;9799;48.214;16.388;2023-04-28T20:11:09;14.40;99.90
19330;DHT22;9799;48.214;16.388;2023-04-28T20:14:31;14.30;99.90
19330;DHT22;9799;48.214;16.388;2023-04-28T20:17:57;14.30;99.90
19330;DHT22;9799;48.214;16.388;2023-04-28T20:21:19;14.30;99.90
19330;DHT22;9799;48.214;16.388;2023-04-28T20:24:41;14.40;99.90
19330;DHT22;9799;48.214;16.388;2023-04-28T20:28:02;14.40;99.90
19330;DHT22;9799;48.214;16.388;2023-04-28T20:31:24;14.20;99.90
19330;DHT22;9799;48.214;16.388;2023-04-28T20:34:46;14.20;99.90
19330;DHT22;9799;48.214;16.388;2023-04-28T20:38:07;14.30;99.90
19330;DHT22;9799;48.214;16.388;2023-04-28T20:41:28;14.30;99.90
19330;DHT22;9799;48.214;16.388;2023-04-28T20:44:51;14.30;99.90
19330;DHT22;9799;48.214;16.388;2023-04-28T20:48:12;14.30;99.90
19330;DHT22;9799;48.214;16.388;2023-04-28T20:51:35;14.20;99.90
19330;DHT22;9799;48.214;16.388;2023-04-28T20:54:57;14.30;99.90
19330;DHT22;9799;48.214;16.388;2023-04-28T20:58:19;14.30;99.90
19330;DHT22;9799;48.214;16.388;2023-04-28T21:01:40;14.20;99.90
19330;DHT22;9799;48.214;16.388;2023-04-28T21:05:01;14.20;99.90
19330;DHT22;9799;48.214;16.388;2023-04-28T21:08:23;14.10;99.90
19330;DHT22;9799;48.214;16.388;2023-04-28T21:11:45;14.00;99.90
19330;DHT22;9799;48.214;16.388;2023-04-28T21:15:07;14.10;99.90
19330;DHT22;9799;48.214;16.388;2023-04-28T21:18:28;14.10;99.90
19330;DHT22;9799;48.214;16.388;2023-04-28T21:21:49;14.10;99.90
19330;DHT22;9799;48.214;16.388;2023-04-28T21:25:12;14.20;99.90